Site contains unofficial IBTrACS data. Visit the IBTrACS Website to access archived data.

1924 NOT_NAMED (1924235N12128)


IBTrACS version v04r00. Visit IBTrACS website for data access.
Please direct all questions to the IBTrACS Q and A forum

Storm track - Intensity - Wind Radii - Intensity Data - Source Data - All data

Summary Information

Storm ID 1924235N12128
Start Aug 21 22Z
Landfall Aug 23 09Z, Aug 25 06Z
End Aug 25 22Z
ATCF IDs
Track status Best track data.

Storm track plot

Map of storm track

Intensity plots

No Intensity information for this storm


Radial wind information

No radial wind information for this storm


Position and Intensity Table

BASIN ISO_TIME_________ NATURE LAT LON
degrees north degrees east
WP 1924-08-21 22:00:00 NR 12.00 128.10
WP 1924-08-22 00:00:00 NR 12.28 127.79
WP 03:00:00 NR 12.70 127.32
WP 06:00:00 NR 13.10 126.84
WP 09:00:00 NR 13.48 126.36
WP 10:00:00 NR 13.60 126.20
WP 12:00:00 NR 13.82 125.87
WP 15:00:00 NR 14.14 125.36
WP 18:00:00 NR 14.43 124.81
WP 21:00:00 NR 14.71 124.21
WP 22:00:00 NR 14.80 124.00
WP 1924-08-23 00:00:00 NR 14.99 123.55
WP 03:00:00 NR 15.27 122.83
WP 06:00:00 NR 15.54 122.07
WP 09:00:00 NR 15.81 121.27
WP 10:00:00 NR 15.90 121.00
WP 12:00:00 NR 16.08 120.44
WP 15:00:00 NR 16.36 119.59
WP 18:00:00 NR 16.63 118.75
WP 21:00:00 NR 16.91 117.95
WP 22:00:00 NR 17.00 117.70
WP 1924-08-24 00:00:00 NR 17.19 117.26
WP 03:00:00 NR 17.48 116.66
WP 06:00:00 NR 17.75 116.09
WP 09:00:00 NR 18.02 115.51
WP 10:00:00 NR 18.10 115.30
WP 12:00:00 NR 18.25 114.83
WP 15:00:00 NR 18.44 114.10
WP 18:00:00 NR 18.63 113.36
WP 21:00:00 NR 18.83 112.63
WP 22:00:00 NR 18.90 112.40
WP 1924-08-25 00:00:00 NR 19.05 111.94
WP 03:00:00 NR 19.29 111.29
WP 06:00:00 NR 19.55 110.66
WP 09:00:00 NR 19.81 110.08
WP 10:00:00 NR 19.90 109.90
WP 12:00:00 NR 20.08 109.55
WP 15:00:00 NR 20.35 109.06
WP 18:00:00 NR 20.63 108.59
WP 21:00:00 NR 20.91 108.15
WP 22:00:00 NR 21.00 108.00

Source Information

Agency Information
USA
TOKYO
CMA
HKO
NEWDELHI
REUNION
BOM
NADI
WELLINGTON
DS824
TD9636 cons_worldwide_trop_cyclone_18710101-19891231-003:Line=7217
TD9635
NEUMANN
MLC

All available IBTrACS Data

SEASON BASIN SUBBASIN ISO_TIME_________ NATURE LAT LON DIST2LAND LANDFALL IFLAG USA SSHS TD9636 LAT TD9636 LON TD9636 STAGE STORM SPEED STORM DIR
Year degrees north degrees east km km 1 degrees north degrees east kts degrees
1924 WP MM 1924-08-21 22:00:00 NR 12.00 128.10 274 250 __________O___ -1 12.00 128.10 4 13 313
1924 WP MM 1924-08-22 00:00:00 NR 12.28 127.79 250 203 __________P___ -1 12.28 127.79 4 12 313
1924 WP MM 03:00:00 NR 12.70 127.32 203 173 __________P___ -1 12.70 127.32 4 12 312
1924 WP MM 06:00:00 NR 13.10 126.84 173 163 __________P___ -1 13.10 126.84 4 12 310
1924 WP MM 09:00:00 NR 13.48 126.36 171 163 __________P___ -1 13.48 126.36 4 12 308
1924 WP MM 10:00:00 NR 13.60 126.20 164 157 __________O___ -1 13.60 126.20 4 12 306
1924 WP MM 12:00:00 NR 13.82 125.87 162 110 __________P___ -1 13.82 125.87 4 12 303
1924 WP MM 15:00:00 NR 14.14 125.36 110 70 __________P___ -1 14.14 125.36 4 12 300
1924 WP MM 18:00:00 NR 14.43 124.81 70 64 __________P___ -1 14.43 124.81 4 13 297
1924 WP MM 21:00:00 NR 14.71 124.21 78 78 __________P___ -1 14.71 124.21 4 13 295
1924 WP MM 22:00:00 NR 14.80 124.00 90 90 __________O___ -1 14.80 124.00 4 14 294
1924 WP MM 1924-08-23 00:00:00 NR 14.99 123.55 116 104 __________P___ -1 14.99 123.55 4 15 292
1924 WP MM 03:00:00 NR 15.27 122.83 116 56 __________P___ -1 15.27 122.83 4 15 291
1924 WP MM 06:00:00 NR 15.54 122.07 56 0 __________P___ -1 15.54 122.07 4 16 290
1924 WP MM 09:00:00 NR 15.81 121.27 0 0 __________P___ -1 15.81 121.27 4 16 289
1924 WP MM 10:00:00 NR 15.90 121.00 0 0 __________O___ -1 15.90 121.00 4 17 289
1924 WP MM 12:00:00 NR 16.08 120.44 0 0 __________P___ -1 16.08 120.44 4 17 289
1924 WP MM 15:00:00 NR 16.36 119.59 24 33 __________P___ -1 16.36 119.59 4 17 289
1924 WP MM 18:00:00 NR 16.63 118.75 122 122 __________P___ -1 16.63 118.75 4 17 289
1924 WP MM 21:00:00 NR 16.91 117.95 213 213 __________P___ -1 16.91 117.95 4 16 290
1924 WP MM 22:00:00 NR 17.00 117.70 237 237 __________O___ -1 17.00 117.70 4 14 293
1924 WP MM 1924-08-24 00:00:00 NR 17.19 117.26 284 294 __________P___ -1 17.19 117.26 4 13 296
1924 WP MM 03:00:00 NR 17.48 116.66 356 366 __________P___ -1 17.48 116.66 4 13 297
1924 WP MM 06:00:00 NR 17.75 116.09 427 427 __________P___ -1 17.75 116.09 4 12 296
1924 WP MM 09:00:00 NR 18.02 115.51 494 481 __________P___ -1 18.02 115.51 4 12 295
1924 WP MM 10:00:00 NR 18.10 115.30 481 429 __________O___ -1 18.10 115.30 4 14 290
1924 WP MM 12:00:00 NR 18.25 114.83 429 352 __________P___ -1 18.25 114.83 4 14 287
1924 WP MM 15:00:00 NR 18.44 114.10 352 275 __________P___ -1 18.44 114.10 4 15 286
1924 WP MM 18:00:00 NR 18.63 113.36 275 190 __________P___ -1 18.63 113.36 4 14 285
1924 WP MM 21:00:00 NR 18.83 112.63 190 166 __________P___ -1 18.83 112.63 4 14 286
1924 WP MM 22:00:00 NR 18.90 112.40 166 109 __________O___ -1 18.90 112.40 4 14 289
1924 WP MM 1924-08-25 00:00:00 NR 19.05 111.94 109 45 __________P___ -1 19.05 111.94 4 14 290
1924 WP MM 03:00:00 NR 19.29 111.29 45 0 __________P___ -1 19.29 111.29 4 13 292
1924 WP MM 06:00:00 NR 19.55 110.66 0 0 __________P___ -1 19.55 110.66 4 12 295
1924 WP MM 09:00:00 NR 19.81 110.08 0 0 __________P___ -1 19.81 110.08 4 12 296
1924 WP MM 10:00:00 NR 19.90 109.90 0 0 __________O___ -1 19.90 109.90 4 11 298
1924 WP MM 12:00:00 NR 20.08 109.55 22 22 __________P___ -1 20.08 109.55 4 11 300
1924 WP MM 15:00:00 NR 20.35 109.06 69 74 __________P___ -1 20.35 109.06 4 11 302
1924 WP MM 18:00:00 NR 20.63 108.59 108 59 __________P___ -1 20.63 108.59 4 10 303
1924 WP MM 21:00:00 NR 20.91 108.15 59 45 __________P___ -1 20.91 108.15 4 10 304
1924 WP MM 22:00:00 NR 21.00 108.00 45 __________O___ -1 21.00 108.00 7 10 305